Etusivu
METAR-TAF:

METAR-TAF

Lentoasemat :

Crookston, Minnesota, Yhdysvallat

Leveyspiiri: 47-51N, Pituuspiiri: 096-37W, korkeus merenpinnasta: 273 m

Tämänhetkinen sää

Tämä raportti tehtiin 20 minuuttia sitten, kello 10.35 UTC
Tuuli 5 kn pohjoisen/luoteesta
Lämpötila -1°C
Kosteus 100%
Ilmanpaine 1019 hPa
Näkyvyys: 16.1 km
Hajanaisia pilviä 6000 ft:n korkeudessa

METAR: KCKN 261035Z AUTO 33005KT 10SM SCT060 M01/M01 A3008 RMK AO2

Aika: 05:55 (10:55 UTC)


TAF: puuttuu

Säähavainnot ja -ennusteet yli 4000 lentoasemalta (METAR- ja TAF-raportit).

Käytössä olevat sääasemat on merkitty karttaan keltaisilla ja punaisilla pisteillä.

Aseta hiiri pisteen päälle nähdäksesi sääaseman nimen.

Klikkaa sitten nähdäksesi säähavainnot ja -ennusteet.

Kartan vaihtaminen: klikkaa mustalla rastilla varustettuja vihreitä pisteitä, niin voit zoomata sisään; viivalla varustettua vihreää pistettä, niin voit zoomata ulos tai vihreitä nuolia, niin pääset viereisille kartoille.


METAR-TAF: